Terminal Aerodrome Forecast
Issued by NWS

Home | Current Version | Previous Version | Text Only | Print | Product List | Glossary On
Versions: 1 2 3 4 5 6 7 8 9 10 11 12 13 14
554
FTUS43 KJKL 280532
TAFSJS
TAF
KSJS 280532Z 2806/2906 00000KT P6SM SCT250
     FM280700 00000KT 3SM BR SCT250
     FM281000 00000KT 1SM BR SCT250
     FM281200 00000KT P6SM SCT250
     FM281700 VRB03KT P6SM VCTS SCT050CB SCT250
     FM282300 VRB03KT P6SM SCT250=

USA.gov is the U.S. government's official web portal to all federal, state and local government web resources and services.